Time;durP1;ratioP1;P1;durP2;ratioP2;P2;SDS_P1;SDS_P2;PMS_P1;PMS_P2;Temp;Humidity;BMP_temperature;BMP_pressure;BME280_temperature;BME280_humidity;BME280_pressure;Samples;Min_cycle;Max_cycle;Signal;HPM_P1;HPM_P2
2022/03/21 00:01:33;;;;;;;12.15;5.40;;;;;;;5.41;44.42;102633.34;5957459;29;20144;-74
2022/03/21 00:04:28;;;;;;;8.82;4.30;;;;;;;5.43;44.10;102645.59;5959355;29;20492;-75
2022/03/21 00:07:24;;;;;;;11.30;5.43;;;;;;;5.43;44.40;102635.06;5963370;29;20089;-73
2022/03/21 00:10:19;;;;;;;9.95;4.43;;;;;;;5.54;43.34;102644.22;5962567;29;20534;-72
2022/03/21 00:13:15;;;;;;;11.20;4.93;;;;;;;5.56;44.07;102644.13;5973274;29;20078;-73
2022/03/21 00:16:12;;;;;;;11.60;4.72;;;;;;;5.44;44.52;102637.63;5968464;29;20372;-72
2022/03/21 00:19:08;;;;;;;11.70;5.78;;;;;;;5.42;44.48;102644.72;5959082;29;20048;-72
2022/03/21 00:22:03;;;;;;;12.35;5.40;;;;;;;5.33;44.36;102637.22;5942806;29;20546;-72
2022/03/21 00:24:59;;;;;;;10.97;4.80;;;;;;;5.28;44.59;102637.41;5951666;29;20052;-76
2022/03/21 00:27:55;;;;;;;11.97;5.27;;;;;;;5.33;45.12;102634.59;5958753;29;20050;-74
2022/03/21 00:30:51;;;;;;;9.45;4.60;;;;;;;5.31;44.37;102637.28;5952317;29;20399;-73
2022/03/21 00:33:46;;;;;;;11.02;5.18;;;;;;;5.30;44.88;102634.72;5956491;29;20038;-72
2022/03/21 00:36:42;;;;;;;12.73;5.10;;;;;;;5.22;44.61;102636.81;5957350;29;20145;-72
2022/03/21 00:39:38;;;;;;;10.30;5.05;;;;;;;5.16;44.83;102632.69;5956565;29;20074;-74
2022/03/21 00:42:38;;;;;;;14.65;5.45;;;;;;;5.16;45.15;102639.72;5952098;29;20035;-73
2022/03/21 00:45:34;;;;;;;10.88;5.68;;;;;;;5.07;44.87;102642.72;5957053;29;20042;-74
2022/03/21 00:48:30;;;;;;;17.10;5.65;;;;;;;5.06;46.15;102643.63;5968434;29;20035;-72
2022/03/21 00:51:25;;;;;;;15.02;5.57;;;;;;;5.05;45.49;102640.16;5970262;29;20043;-74
2022/03/21 00:54:20;;;;;;;13.20;5.70;;;;;;;5.02;45.42;102649.94;5953186;29;20126;-72
2022/03/21 00:57:16;;;;;;;13.47;4.90;;;;;;;4.92;45.65;102654.72;5939899;29;20645;-71
2022/03/21 01:00:13;;;;;;;12.00;5.15;;;;;;;4.83;45.92;102639.34;5966092;29;20427;-74
2022/03/21 01:03:09;;;;;;;12.52;4.68;;;;;;;4.77;46.32;102639.56;5958121;29;20043;-72
2022/03/21 01:06:04;;;;;;;11.00;5.28;;;;;;;4.81;46.04;102636.75;5954422;29;20031;-72
2022/03/21 01:08:59;;;;;;;11.93;5.43;;;;;;;4.78;46.37;102636.88;5962497;29;20039;-73
2022/03/21 01:11:55;;;;;;;14.37;4.93;;;;;;;4.73;46.65;102630.09;5969901;29;20036;-72
2022/03/21 01:14:52;;;;;;;11.20;5.32;;;;;;;4.66;46.19;102640.00;5947345;29;20036;-74
2022/03/21 01:17:48;;;;;;;13.25;6.07;;;;;;;4.70;46.31;102627.59;5981302;29;20031;-72
2022/03/21 01:20:43;;;;;;;12.95;5.32;;;;;;;4.61;46.73;102631.44;5964279;29;20054;-72
2022/03/21 01:23:39;;;;;;;14.00;5.22;;;;;;;4.59;47.45;102640.31;5947213;29;20043;-75
2022/03/21 01:26:35;;;;;;;10.90;5.10;;;;;;;4.50;47.72;102633.66;5957315;29;20087;-74
2022/03/21 01:29:31;;;;;;;12.63;4.90;;;;;;;4.53;47.91;102636.16;5954925;29;20279;-72
2022/03/21 01:32:26;;;;;;;10.88;5.03;;;;;;;4.46;47.90;102633.81;5951983;29;20395;-73
2022/03/21 01:35:21;;;;;;;11.80;5.55;;;;;;;4.37;47.95;102635.03;5956383;29;20040;-71
2022/03/21 01:38:17;;;;;;;15.37;5.47;;;;;;;4.29;48.59;102638.88;5954131;29;20044;-72
2022/03/21 01:41:12;;;;;;;12.63;4.57;;;;;;;4.25;48.27;102635.50;5955158;29;20390;-72
2022/03/21 01:44:09;;;;;;;14.33;4.83;;;;;;;4.22;48.71;102625.97;5945064;29;20048;-73
2022/03/21 01:47:05;;;;;;;12.38;5.90;;;;;;;4.18;48.02;102623.53;5954787;29;20062;-74
2022/03/21 01:50:02;;;;;;;14.90;6.50;;;;;;;4.13;48.75;102630.72;5968674;29;20471;-73
2022/03/21 01:56:13;;;;;;;10.93;4.93;;;;;;;4.04;48.90;102639.78;5953787;29;20114;-74
2022/03/21 01:59:09;;;;;;;13.18;5.60;;;;;;;3.99;48.59;102652.25;5956158;29;20027;-73
2022/03/21 02:02:06;;;;;;;12.27;4.82;;;;;;;3.92;49.91;102642.00;5949050;29;20090;-73
2022/03/21 02:05:01;;;;;;;12.10;5.68;;;;;;;3.85;49.21;102640.53;5949944;29;20099;-74
2022/03/21 02:07:57;;;;;;;12.40;5.67;;;;;;;3.87;50.06;102643.94;5957085;29;20475;-74
2022/03/21 02:10:52;;;;;;;17.40;6.00;;;;;;;3.80;49.67;102645.94;5953515;29;20130;-74
2022/03/21 02:13:47;;;;;;;15.00;6.30;;;;;;;3.78;50.58;102644.28;5974569;29;20295;-73
2022/03/21 02:16:43;;;;;;;13.70;6.63;;;;;;;3.74;50.30;102645.28;5958242;29;20074;-72
2022/03/21 02:19:39;;;;;;;15.10;6.13;;;;;;;3.68;50.25;102632.38;5952629;29;20023;-73
2022/03/21 02:22:54;;;;;;;12.27;5.75;;;;;;;3.64;50.07;102641.28;5954604;29;21773;-70
2022/03/21 02:25:49;;;;;;;18.02;6.78;;;;;;;3.58;50.78;102631.88;5939467;29;20094;-71
2022/03/21 02:28:46;;;;;;;15.45;6.72;;;;;;;3.60;50.92;102630.91;5954314;29;20039;-72
2022/03/21 02:31:41;;;;;;;11.93;5.82;;;;;;;3.57;51.32;102636.25;5944468;29;20099;-72
2022/03/21 02:34:38;;;;;;;15.18;7.05;;;;;;;3.57;50.52;102638.88;5938665;29;20566;-74
2022/03/21 02:37:34;;;;;;;14.15;5.90;;;;;;;3.52;50.80;102639.94;5954383;29;20035;-73
2022/03/21 02:40:30;;;;;;;14.02;5.35;;;;;;;3.45;51.30;102639.28;5935187;29;20519;-72
2022/03/21 02:43:25;;;;;;;15.10;5.65;;;;;;;3.38;51.37;102642.19;5939206;29;20048;-74
2022/03/21 02:46:21;;;;;;;16.80;6.30;;;;;;;3.32;52.00;102638.00;5949522;29;20044;-73
2022/03/21 02:49:17;;;;;;;14.13;6.18;;;;;;;3.32;51.54;102645.88;5955439;29;20038;-73
2022/03/21 02:52:13;;;;;;;15.20;5.97;;;;;;;3.27;51.98;102639.94;5953933;29;20031;-72
2022/03/21 02:55:08;;;;;;;16.13;6.30;;;;;;;3.25;51.89;102643.53;5937413;29;20122;-75
2022/03/21 02:58:03;;;;;;;16.60;6.17;;;;;;;3.16;52.66;102641.19;5949854;29;20043;-74
2022/03/21 03:01:18;;;;;;;11.07;4.90;;;;;;;3.09;52.91;102635.31;5945547;29;20062;-73
2022/03/21 03:04:13;;;;;;;16.73;6.05;;;;;;;3.07;53.03;102639.78;5953461;29;20028;-72
2022/03/21 03:07:09;;;;;;;12.37;5.37;;;;;;;3.02;52.73;102636.41;5956156;29;20110;-72
2022/03/21 03:10:05;;;;;;;15.20;7.40;;;;;;;2.95;52.76;102640.16;5937980;29;20562;-75
2022/03/21 03:13:01;;;;;;;16.02;6.30;;;;;;;3.02;53.41;102646.91;5968113;29;20482;-70
2022/03/21 03:15:56;;;;;;;13.50;5.70;;;;;;;3.00;53.71;102646.09;5945115;29;20036;-73
2022/03/21 03:18:52;;;;;;;14.82;6.10;;;;;;;3.00;53.78;102643.47;5953808;29;20291;-72
2022/03/21 03:21:48;;;;;;;14.17;5.50;;;;;;;2.99;53.18;102641.75;5953143;29;20107;-71
2022/03/21 03:24:45;;;;;;;15.43;6.45;;;;;;;2.97;53.75;102638.34;5954445;29;20036;-75
2022/03/21 03:27:40;;;;;;;19.13;6.90;;;;;;;2.93;53.86;102641.97;5955245;29;20591;-72
2022/03/21 03:30:36;;;;;;;16.27;5.80;;;;;;;2.86;53.87;102643.06;5955680;29;20059;-73
2022/03/21 03:33:31;;;;;;;16.88;6.50;;;;;;;2.85;54.63;102644.00;5948887;29;20065;-74
2022/03/21 03:36:26;;;;;;;12.95;6.47;;;;;;;2.88;54.25;102649.13;5972877;29;20036;-74
2022/03/21 03:39:22;;;;;;;14.13;5.40;;;;;;;2.78;54.13;102638.06;5958972;29;20039;-75
2022/03/21 03:42:17;;;;;;;14.50;7.13;;;;;;;2.77;54.49;102641.59;5948898;29;20046;-72
2022/03/21 03:45:13;;;;;;;14.23;6.37;;;;;;;2.79;54.96;102645.03;5959767;29;20075;-75
2022/03/21 03:48:09;;;;;;;11.05;5.50;;;;;;;2.72;54.98;102653.13;5958203;29;20035;-73
2022/03/21 03:51:04;;;;;;;14.45;5.78;;;;;;;2.69;54.90;102658.47;5940556;29;21721;-71
2022/03/21 03:54:00;;;;;;;13.00;6.20;;;;;;;2.67;55.06;102655.88;5959646;29;20028;-71
2022/03/21 03:56:55;;;;;;;16.83;6.07;;;;;;;2.56;55.58;102655.38;5958323;29;20271;-75
2022/03/21 03:59:50;;;;;;;18.03;7.97;;;;;;;2.54;55.79;102657.19;5958720;29;20036;-71
2022/03/21 04:06:00;;;;;;;15.48;7.03;;;;;;;2.51;55.65;102664.25;5957820;29;20040;-73
2022/03/21 04:08:55;;;;;;;20.43;6.63;;;;;;;2.48;55.98;102654.75;5958577;29;20039;-73
2022/03/21 04:11:51;;;;;;;10.52;5.80;;;;;;;2.48;55.70;102659.13;5960352;29;20075;-72
2022/03/21 04:14:48;;;;;;;17.13;7.20;;;;;;;2.42;56.40;102661.03;5974000;29;20538;-72
2022/03/21 04:17:43;;;;;;;17.33;7.43;;;;;;;2.37;56.81;102660.31;5958820;29;20043;-74
2022/03/21 04:20:40;;;;;;;17.70;7.22;;;;;;;2.33;56.36;102663.94;5956832;29;20050;-73
2022/03/21 04:23:35;;;;;;;16.02;6.35;;;;;;;2.36;56.55;102663.81;5956700;29;20095;-74
2022/03/21 04:26:31;;;;;;;14.57;6.63;;;;;;;2.29;56.90;102661.44;5958402;29;20032;-73
2022/03/21 04:29:29;;;;;;;16.23;6.53;;;;;;;2.26;56.70;102669.38;5957299;29;20047;-72
2022/03/21 04:32:24;;;;;;;17.20;6.78;;;;;;;2.22;57.54;102673.84;5956797;29;20038;-74
2022/03/21 04:35:19;;;;;;;16.90;6.77;;;;;;;2.15;57.95;102674.06;5953906;29;20040;-74
2022/03/21 04:38:16;;;;;;;14.30;5.73;;;;;;;2.11;58.06;102669.81;5954340;29;20531;-73
2022/03/21 04:41:12;;;;;;;17.88;6.65;;;;;;;2.03;58.41;102674.41;5949151;29;20284;-75
2022/03/21 04:44:07;;;;;;;13.65;6.32;;;;;;;2.05;58.08;102670.00;5958059;29;20043;-74
2022/03/21 04:47:03;;;;;;;17.97;6.87;;;;;;;2.14;57.67;102674.97;5954673;29;20071;-73
2022/03/21 04:49:58;;;;;;;20.52;5.95;;;;;;;2.13;57.65;102674.09;5947320;29;20032;-73
2022/03/21 04:52:53;;;;;;;14.37;5.80;;;;;;;2.16;57.79;102668.78;5953697;29;20040;-73
2022/03/21 04:55:49;;;;;;;14.13;6.87;;;;;;;2.16;57.52;102674.03;5950497;29;20043;-71
2022/03/21 04:58:44;;;;;;;14.52;5.63;;;;;;;2.20;56.99;102691.34;5948674;29;20064;-73
2022/03/21 05:01:39;;;;;;;15.50;5.43;;;;;;;2.23;57.55;102686.00;5948931;29;20044;-71
2022/03/21 05:04:35;;;;;;;16.33;6.75;;;;;;;2.18;57.16;102697.53;5958712;29;20032;-74
2022/03/21 05:07:30;;;;;;;17.53;6.80;;;;;;;2.16;56.95;102694.97;5958320;29;20040;-74
2022/03/21 05:10:26;;;;;;;14.38;6.28;;;;;;;2.17;57.81;102696.69;5961425;29;20031;-71
2022/03/21 05:13:22;;;;;;;16.20;6.85;;;;;;;2.17;57.71;102704.53;5952742;29;20032;-76
2022/03/21 05:16:18;;;;;;;16.05;7.40;;;;;;;2.08;58.09;102696.06;5954307;29;20054;-71
2022/03/21 05:19:14;;;;;;;17.45;7.72;;;;;;;2.08;58.02;102699.56;5966286;29;20037;-71
2022/03/21 05:22:09;;;;;;;15.10;6.45;;;;;;;2.06;58.17;102709.22;5980533;29;20430;-72
2022/03/21 05:31:33;;;;;;;21.23;7.28;;;;;;;2.08;58.58;102704.78;5967499;29;20036;-73
2022/03/21 05:37:42;;;;;;;16.48;7.00;;;;;;;2.00;57.93;102705.88;5972123;29;20031;-73
2022/03/21 05:40:41;;;;;;;16.73;7.03;;;;;;;1.99;58.73;102709.41;5979627;29;20106;-71
2022/03/21 05:43:36;;;;;;;16.35;6.72;;;;;;;1.93;58.96;102705.19;5957082;29;20038;-73
2022/03/21 05:46:31;;;;;;;16.87;6.33;;;;;;;1.94;59.09;102708.66;5968683;29;20040;-73
2022/03/21 05:49:27;;;;;;;17.10;7.03;;;;;;;1.98;58.86;102705.94;5952742;29;20256;-71
2022/03/21 05:52:23;;;;;;;15.90;6.47;;;;;;;2.05;59.14;102707.47;5946550;29;20391;-72
2022/03/21 05:55:19;;;;;;;14.75;6.55;;;;;;;2.17;58.77;102712.38;5956605;29;20063;-72
2022/03/21 05:58:14;;;;;;;13.77;5.83;;;;;;;2.42;58.09;102721.22;5953686;29;20046;-73
2022/03/21 06:01:15;;;;;;;16.07;7.27;;;;;;;2.59;56.79;102715.50;5953706;29;20483;-73
2022/03/21 06:04:10;;;;;;;14.25;6.72;;;;;;;2.54;57.93;102721.78;5956790;29;20094;-73
2022/03/21 06:07:06;;;;;;;19.30;7.57;;;;;;;2.69;57.27;102714.31;5950130;29;20039;-71
2022/03/21 06:10:01;;;;;;;20.80;7.37;;;;;;;2.76;56.52;102717.59;5955340;29;20047;-75
2022/03/21 06:12:56;;;;;;;15.77;6.83;;;;;;;2.95;56.56;102734.47;5958842;29;20032;-71
2022/03/21 06:15:53;;;;;;;18.50;7.50;;;;;;;2.99;55.55;102725.59;5952901;29;20050;-72
2022/03/21 06:18:48;;;;;;;14.10;6.78;;;;;;;3.06;55.66;102735.00;5966803;29;20054;-70
2022/03/21 06:21:43;;;;;;;21.73;7.47;;;;;;;3.09;54.97;102732.28;5956586;29;20043;-73
2022/03/21 06:24:39;;;;;;;16.08;7.05;;;;;;;2.94;55.85;102727.50;5956756;29;20027;-73
2022/03/21 06:27:35;;;;;;;16.02;7.03;;;;;;;3.22;55.07;102730.97;5958657;29;20368;-72
2022/03/21 06:30:30;;;;;;;15.25;6.80;;;;;;;3.30;55.43;102733.34;5955560;29;20055;-74
2022/03/21 06:33:28;;;;;;;17.23;7.43;;;;;;;3.24;54.29;102733.53;5954769;29;20027;-70
2022/03/21 06:36:23;;;;;;;18.40;8.07;;;;;;;3.34;54.57;102734.97;5968842;29;20333;-73
2022/03/21 06:39:19;;;;;;;19.20;7.70;;;;;;;3.37;54.89;102743.56;5950310;29;20040;-70
2022/03/21 06:42:14;;;;;;;17.23;7.28;;;;;;;3.38;53.97;102742.69;5951418;29;20039;-70
2022/03/21 06:45:10;;;;;;;15.43;6.63;;;;;;;3.54;53.53;102741.28;5947515;29;20475;-73
2022/03/21 06:48:05;;;;;;;15.70;8.05;;;;;;;3.63;53.45;102744.50;5957807;29;20114;-72
2022/03/21 06:51:01;;;;;;;17.45;7.60;;;;;;;3.66;53.02;102766.25;5957632;29;20059;-72
2022/03/21 06:53:56;;;;;;;16.38;7.07;;;;;;;3.84;52.75;102757.72;5964514;29;20032;-73
2022/03/21 06:56:52;;;;;;;17.20;7.60;;;;;;;3.95;52.73;102752.97;5947561;29;20043;-71
2022/03/21 06:59:47;;;;;;;17.37;6.93;;;;;;;4.08;53.10;102759.50;5954709;29;20036;-73
2022/03/21 07:02:46;;;;;;;18.20;7.68;;;;;;;3.99;52.23;102754.59;5949751;29;20350;-72
2022/03/21 07:05:41;;;;;;;18.67;6.78;;;;;;;4.02;52.80;102751.84;5955149;29;20089;-72
2022/03/21 07:08:36;;;;;;;16.73;6.70;;;;;;;4.11;52.03;102758.53;5961696;29;20039;-71
2022/03/21 07:11:34;;;;;;;15.03;7.33;;;;;;;4.06;52.10;102763.09;5957444;29;20078;-71
2022/03/21 07:14:30;;;;;;;16.92;8.20;;;;;;;3.96;51.84;102766.97;5962591;29;20070;-71
2022/03/21 07:17:25;;;;;;;18.30;7.13;;;;;;;4.11;52.50;102769.03;5959708;29;20439;-72
2022/03/21 07:20:20;;;;;;;17.27;7.73;;;;;;;4.35;52.11;102773.41;5953105;29;20044;-70
2022/03/21 07:23:16;;;;;;;19.88;7.95;;;;;;;4.48;51.45;102772.06;5949128;29;20043;-73
2022/03/21 07:26:12;;;;;;;15.73;7.67;;;;;;;4.43;51.98;102771.34;5973556;29;20486;-73
2022/03/21 07:29:08;;;;;;;19.15;8.32;;;;;;;4.57;52.07;102776.97;5953778;29;20055;-72
2022/03/21 07:32:04;;;;;;;16.38;7.40;;;;;;;4.87;51.12;102777.56;5957432;29;20031;-72
2022/03/21 07:34:59;;;;;;;17.60;7.45;;;;;;;4.86;50.83;102767.13;5958094;29;20079;-74
2022/03/21 07:37:56;;;;;;;15.13;6.63;;;;;;;4.89;51.02;102780.16;5956781;29;20039;-73
2022/03/21 07:40:51;;;;;;;17.15;7.57;;;;;;;4.87;51.29;102782.84;5959764;29;20031;-70
2022/03/21 07:43:46;;;;;;;19.07;7.90;;;;;;;4.82;50.33;102769.88;5955548;29;20035;-70
2022/03/21 07:49:56;;;;;;;18.65;8.68;;;;;;;5.07;50.09;102771.56;5964321;29;20123;-69
2022/03/21 07:52:53;;;;;;;19.23;8.60;;;;;;;5.26;49.67;102780.44;5954541;29;20035;-75
2022/03/21 07:55:48;;;;;;;15.40;7.97;;;;;;;5.69;49.28;102769.00;5956316;29;20834;-72
2022/03/21 07:58:43;;;;;;;22.67;9.40;;;;;;;5.41;48.80;102775.41;5956344;29;20031;-72
2022/03/21 08:01:39;;;;;;;17.73;7.70;;;;;;;5.41;49.59;102769.28;5944608;29;20063;-71
2022/03/21 08:04:35;;;;;;;15.82;8.23;;;;;;;5.47;49.16;102774.28;5955524;29;20032;-74
2022/03/21 08:07:34;;;;;;;18.17;8.63;;;;;;;5.55;49.80;102777.47;5957270;29;20043;-70
2022/03/21 08:10:29;;;;;;;20.17;8.35;;;;;;;5.67;49.75;102768.22;5954933;29;20518;-72
2022/03/21 08:13:26;;;;;;;19.05;8.68;;;;;;;6.06;49.30;102774.44;5959644;29;20040;-72
2022/03/21 08:16:22;;;;;;;17.58;8.15;;;;;;;5.90;48.33;102774.25;5955811;29;20043;-70
2022/03/21 08:19:18;;;;;;;18.05;8.25;;;;;;;6.23;48.52;102776.34;5952914;29;20035;-72
2022/03/21 08:22:15;;;;;;;18.58;8.95;;;;;;;6.15;47.46;102770.56;5949571;29;20043;-71
2022/03/21 08:25:10;;;;;;;17.67;8.27;;;;;;;6.42;48.19;102770.19;5968061;29;20036;-72
2022/03/21 08:28:06;;;;;;;19.40;7.77;;;;;;;6.80;47.71;102772.84;5956501;29;20496;-73
2022/03/21 08:31:02;;;;;;;18.35;8.73;;;;;;;6.94;47.56;102776.56;5942402;29;20115;-72
2022/03/21 08:33:57;;;;;;;23.52;9.23;;;;;;;6.91;46.28;102771.44;5964722;29;20186;-71
2022/03/21 08:36:52;;;;;;;19.00;8.77;;;;;;;7.09;45.63;102769.72;5957568;29;20039;-73
2022/03/21 08:39:48;;;;;;;16.53;7.80;;;;;;;7.49;45.26;102773.91;5966771;29;20042;-71
2022/03/21 08:42:43;;;;;;;15.33;6.67;;;;;;;7.42;46.11;102767.25;5947966;29;20471;-71
2022/03/21 08:45:40;;;;;;;20.05;9.10;;;;;;;7.58;44.74;102762.91;5949432;29;20035;-72
2022/03/21 08:51:49;;;;;;;;;;;;;;;7.15;46.70;102770.25;5958719;29;20102;-73
2022/03/21 08:54:45;;;;;;;16.77;7.75;;;;;;;7.38;46.55;102755.09;5957814;29;19915;-73
2022/03/21 08:57:41;;;;;;;19.23;8.10;;;;;;;7.79;45.72;102756.53;5962073;29;20079;-72
2022/03/21 09:00:37;;;;;;;17.20;7.77;;;;;;;8.06;43.74;102752.50;5980685;29;20028;-72
2022/03/21 09:03:32;;;;;;;16.17;8.38;;;;;;;8.29;43.91;102760.09;5956000;29;20091;-74
2022/03/21 09:06:28;;;;;;;16.50;8.40;;;;;;;8.17;43.19;102754.56;5952208;29;20363;-70
2022/03/21 09:09:23;;;;;;;17.02;7.70;;;;;;;8.27;43.54;102759.31;5949936;29;20028;-74
2022/03/21 09:12:19;;;;;;;16.27;9.00;;;;;;;8.20;43.81;102757.91;5951292;29;20035;-73
2022/03/21 09:15:14;;;;;;;18.93;7.53;;;;;;;8.24;43.44;102758.59;5956894;29;20276;-74
2022/03/21 09:18:09;;;;;;;16.87;8.40;;;;;;;8.41;43.32;102747.16;5957770;29;20762;-72
2022/03/21 09:21:05;;;;;;;18.33;8.33;;;;;;;8.67;43.42;102755.38;5956593;29;20136;-73
2022/03/21 09:24:00;;;;;;;18.80;8.85;;;;;;;8.40;43.51;102750.75;5957451;29;20349;-73
2022/03/21 09:26:56;;;;;;;17.30;7.50;;;;;;;8.59;43.27;102759.41;5956475;29;20822;-73
2022/03/21 09:29:51;;;;;;;17.85;8.80;;;;;;;8.48;43.08;102756.47;5964723;29;20031;-72
2022/03/21 09:32:46;;;;;;;16.70;7.83;;;;;;;8.87;42.63;102759.59;5962663;29;20035;-71
2022/03/21 09:35:44;;;;;;;17.13;7.83;;;;;;;9.07;42.10;102762.00;5967832;29;20034;-71
2022/03/21 09:38:39;;;;;;;18.42;8.93;;;;;;;9.22;42.00;102755.81;5952121;29;20049;-74
2022/03/21 09:41:35;;;;;;;15.40;8.77;;;;;;;9.18;41.84;102754.31;5948593;29;20035;-72
2022/03/21 09:44:30;;;;;;;14.30;8.13;;;;;;;9.43;42.10;102757.22;5959931;29;20035;-75
2022/03/21 09:50:56;;;;;;;21.90;9.18;;;;;;;9.48;41.57;102762.28;5949725;29;20293;-72
2022/03/21 09:53:52;;;;;;;19.50;9.88;;;;;;;9.37;41.68;102754.97;5979860;29;20476;-71
2022/03/21 09:56:47;;;;;;;18.33;9.07;;;;;;;9.41;41.83;102753.81;5963191;29;20074;-73
2022/03/21 09:59:42;;;;;;;17.40;8.60;;;;;;;9.48;41.50;102757.81;5936519;29;20043;-71
2022/03/21 10:02:38;;;;;;;17.30;8.23;;;;;;;9.65;41.21;102748.06;5955277;29;20440;-71
2022/03/21 10:05:44;;;;;;;19.55;9.50;;;;;;;9.47;40.91;102749.97;5956300;29;20094;-74
2022/03/21 10:08:40;;;;;;;15.63;8.05;;;;;;;10.01;41.02;102751.16;5956460;29;20464;-74
2022/03/21 10:11:35;;;;;;;17.27;7.80;;;;;;;9.97;41.15;102754.94;5952741;29;20044;-73
2022/03/21 10:14:32;;;;;;;17.17;8.90;;;;;;;10.21;40.82;102747.34;5965431;29;20041;-73
2022/03/21 10:17:28;;;;;;;16.52;7.93;;;;;;;10.46;39.79;102736.94;5967524;29;20078;-73
2022/03/21 10:20:35;;;;;;;20.08;9.48;;;;;;;10.42;39.53;102738.06;5952214;29;20432;-74
2022/03/21 10:23:34;;;;;;;16.40;8.40;;;;;;;10.14;39.20;102741.53;5951185;29;20477;-73
2022/03/21 10:26:31;;;;;;;16.30;8.43;;;;;;;10.35;39.11;102740.25;5946871;29;20044;-71
2022/03/21 10:29:27;;;;;;;15.27;7.63;;;;;;;10.80;39.19;102730.34;5949689;29;20102;-72
2022/03/21 10:32:42;;;;;;;18.55;8.30;;;;;;;10.65;39.03;102732.19;5942794;29;20031;-73
2022/03/21 10:35:46;;;;;;;19.55;9.23;;;;;;;11.11;38.78;102730.06;5941521;29;20039;-72
2022/03/21 10:38:41;;;;;;;17.80;8.90;;;;;;;11.13;37.89;102736.13;5954290;29;20039;-73
2022/03/21 10:41:38;;;;;;;14.87;8.10;;;;;;;10.86;38.29;102740.56;5951076;29;20051;-72
2022/03/21 10:44:34;;;;;;;23.98;8.85;;;;;;;11.06;37.93;102734.84;5953824;29;20278;-72
2022/03/21 10:47:29;;;;;;;18.48;9.10;;;;;;;11.57;38.16;102718.13;5955737;29;20032;-72
2022/03/21 10:50:29;;;;;;;16.50;7.82;;;;;;;11.34;37.50;102726.75;5952512;29;20506;-73
2022/03/21 10:53:27;;;;;;;19.55;9.27;;;;;;;11.23;37.78;102716.84;5954921;29;20473;-72
2022/03/21 10:56:23;;;;;;;16.35;8.55;;;;;;;11.55;37.55;102729.81;5952772;29;20126;-74
2022/03/21 10:59:18;;;;;;;20.05;9.50;;;;;;;11.21;38.62;102725.84;5956356;29;20085;-72
2022/03/21 11:02:17;;;;;;;16.03;8.60;;;;;;;11.77;38.52;102707.00;5963188;29;20035;-74
2022/03/21 11:05:12;;;;;;;17.30;9.25;;;;;;;11.39;38.34;102719.31;5951851;29;20028;-72
2022/03/21 11:08:10;;;;;;;17.47;8.57;;;;;;;11.68;37.80;102712.06;5946565;29;20405;-71
2022/03/21 11:11:07;;;;;;;17.65;8.32;;;;;;;11.59;38.31;102710.88;5954108;29;20115;-73
2022/03/21 11:14:03;;;;;;;17.75;9.45;;;;;;;11.62;38.03;102718.66;5952895;29;20036;-72
2022/03/21 11:16:58;;;;;;;19.77;9.50;;;;;;;11.99;37.77;102713.50;5961981;29;20383;-72
2022/03/21 11:19:54;;;;;;;21.38;10.30;;;;;;;11.88;37.76;102699.13;5937424;29;20071;-73
2022/03/21 11:22:49;;;;;;;15.05;8.02;;;;;;;11.86;38.07;102698.41;5943623;29;20394;-74
2022/03/21 11:25:50;;;;;;;17.30;8.63;;;;;;;12.14;37.32;102707.13;5952428;29;20111;-71
2022/03/21 11:28:58;;;;;;;18.25;8.73;;;;;;;12.47;36.84;102702.91;5945925;29;20294;-72
2022/03/21 11:32:06;;;;;;;17.63;7.90;;;;;;;12.22;36.88;102705.63;5936429;29;20527;-72
2022/03/21 11:35:09;;;;;;;18.17;9.73;;;;;;;12.14;36.80;102704.47;5961904;29;20040;-70
2022/03/21 11:38:24;;;;;;;16.17;8.60;;;;;;;12.47;36.80;102702.09;5949901;29;20031;-74
2022/03/21 11:41:22;;;;;;;19.15;9.85;;;;;;;12.47;36.12;102691.44;5946175;29;20146;-73
2022/03/21 11:44:17;;;;;;;16.45;8.73;;;;;;;13.00;35.57;102696.38;5949214;29;20483;-72
2022/03/21 11:47:19;;;;;;;17.47;9.20;;;;;;;12.67;35.84;102690.84;5950310;29;20035;-73
2022/03/21 11:50:25;;;;;;;20.63;8.55;;;;;;;12.87;35.97;102676.94;5954351;29;20531;-73
2022/03/21 11:53:28;;;;;;;22.77;10.43;;;;;;;13.15;35.83;102685.59;5944676;29;20036;-71
2022/03/21 11:56:44;;;;;;;17.88;8.75;;;;;;;13.19;35.51;102693.25;5955538;29;20032;-73
2022/03/21 11:59:39;;;;;;;21.75;8.93;;;;;;;13.07;35.26;102684.34;5950578;29;20044;-74
2022/03/21 12:02:38;;;;;;;20.07;8.70;;;;;;;12.99;36.03;102669.88;5947281;29;20043;-73
2022/03/21 12:05:37;;;;;;;22.10;8.85;;;;;;;13.19;35.92;102671.06;5953993;29;20043;-71
2022/03/21 12:08:38;;;;;;;14.80;7.72;;;;;;;13.19;36.39;102671.91;5969245;29;20043;-73
2022/03/21 12:11:37;;;;;;;14.75;8.43;;;;;;;13.02;35.39;102662.50;5957506;29;20043;-73
2022/03/21 12:14:40;;;;;;;20.35;8.60;;;;;;;13.25;35.20;102657.28;5959719;29;20035;-74
2022/03/21 12:17:36;;;;;;;23.75;9.02;;;;;;;13.42;35.54;102660.41;5953143;29;20042;-73
2022/03/21 12:20:45;;;;;;;19.23;9.00;;;;;;;13.59;34.76;102653.75;5952343;29;20390;-72
2022/03/21 12:23:40;;;;;;;16.30;9.30;;;;;;;13.47;33.93;102649.38;5957588;29;20036;-72
2022/03/21 12:26:35;;;;;;;18.30;10.40;;;;;;;13.31;35.58;102654.16;5951354;29;20486;-73
2022/03/21 12:29:33;;;;;;;15.30;9.67;;;;;;;13.32;34.76;102647.84;5954803;29;20048;-74
2022/03/21 12:32:29;;;;;;;14.98;8.35;;;;;;;13.73;35.92;102651.72;5964382;29;20040;-74
2022/03/21 12:35:45;;;;;;;16.10;8.33;;;;;;;13.73;34.96;102651.72;5967966;29;20046;-71
2022/03/21 12:38:40;;;;;;;19.70;10.07;;;;;;;13.75;34.18;102643.63;5954706;29;20032;-71
2022/03/21 12:41:36;;;;;;;17.17;9.60;;;;;;;13.37;33.93;102643.06;5959754;29;20039;-72
2022/03/21 12:44:31;;;;;;;17.80;10.13;;;;;;;13.49;34.51;102644.75;5964534;29;20035;-73
2022/03/21 12:47:26;;;;;;;18.67;10.43;;;;;;;13.54;34.16;102634.59;5961608;29;20395;-74
2022/03/21 12:50:24;;;;;;;17.95;9.70;;;;;;;13.54;34.35;102638.13;5965051;29;20415;-70
2022/03/21 12:53:19;;;;;;;19.23;9.50;;;;;;;13.85;33.93;102635.75;5958390;29;20032;-71
2022/03/21 12:56:16;;;;;;;18.02;9.13;;;;;;;14.15;33.95;102628.84;5971690;29;20039;-71
2022/03/21 12:59:12;;;;;;;16.40;8.60;;;;;;;14.39;33.10;102627.88;5981633;29;20035;-74
2022/03/21 13:02:22;;;;;;;17.52;9.63;;;;;;;14.29;32.78;102627.75;5968774;29;20046;-73
2022/03/21 13:11:50;;;;;;;16.77;8.15;;;;;;;14.04;33.15;102622.66;5958409;29;20446;-71
2022/03/21 13:14:45;;;;;;;18.45;9.27;;;;;;;13.99;33.55;102625.69;5958636;29;20047;-71
2022/03/21 13:17:54;;;;;;;15.77;8.43;;;;;;;14.34;33.17;102622.91;5954926;29;20103;-72
2022/03/21 13:20:49;;;;;;;16.42;9.93;;;;;;;14.22;33.44;102610.50;5952837;29;20124;-73
2022/03/21 13:23:46;;;;;;;17.02;8.85;;;;;;;14.36;33.02;102614.78;5971895;29;20439;-72
2022/03/21 13:26:44;;;;;;;21.98;9.20;;;;;;;14.26;33.06;102618.16;5952140;29;20042;-72
2022/03/21 13:29:49;;;;;;;17.65;9.10;;;;;;;14.21;32.97;102609.66;5957944;29;20035;-71
2022/03/21 13:32:45;;;;;;;19.17;8.65;;;;;;;14.32;33.29;102627.53;5966875;29;20390;-71
2022/03/21 13:35:51;;;;;;;18.70;9.03;;;;;;;14.23;33.07;102623.75;5943040;29;20036;-73
2022/03/21 13:38:46;;;;;;;18.92;9.55;;;;;;;14.41;34.10;102615.25;5940383;29;20354;-73
2022/03/21 13:42:00;;;;;;;17.13;9.87;;;;;;;14.70;32.92;102616.41;5956598;29;20036;-71
2022/03/21 13:44:57;;;;;;;17.67;10.38;;;;;;;14.67;32.92;102619.31;5957498;29;20036;-74
2022/03/21 13:47:53;;;;;;;20.52;9.85;;;;;;;14.64;33.79;102627.59;5975331;29;20125;-72
2022/03/21 13:50:49;;;;;;;19.25;9.95;;;;;;;14.34;33.27;102620.25;5959778;29;20043;-74
2022/03/21 13:53:46;;;;;;;18.23;8.80;;;;;;;14.44;33.18;102615.84;5959337;29;20435;-74
2022/03/21 13:56:42;;;;;;;18.33;10.13;;;;;;;14.14;33.32;102618.28;5970100;29;20034;-73
2022/03/21 13:59:38;;;;;;;16.08;9.15;;;;;;;14.37;33.24;102613.81;5956537;29;20048;-71
2022/03/21 14:02:47;;;;;;;20.35;10.13;;;;;;;14.32;33.57;102603.50;5949852;29;20566;-72
2022/03/21 14:05:42;;;;;;;19.25;9.57;;;;;;;14.36;33.13;102604.09;5957810;29;20066;-74
2022/03/21 14:08:38;;;;;;;21.27;9.07;;;;;;;14.72;33.01;102601.09;5967348;29;20076;-73
2022/03/21 14:11:34;;;;;;;16.63;9.23;;;;;;;14.71;32.42;102594.06;5967383;29;20040;-72